This is the latest recevied weather packets stored in our database for station/object JH5EWP-13. If no packets are shown the sender has not sent any weather packets the latest 10 day(s).
| Time | Temp. | Humidity | Pressure | Rain* | Wind** | Luminosity | Snow |
|---|---|---|---|---|---|---|---|
| 1777421656 | 17.78° C | 61% | 1006.6 hPa | 0 mm | - | - | - |
| 1777420756 | 18.33° C | 61% | 1006.6 hPa | 0 mm | - | - | - |
| 1777419856 | 17.78° C | 60% | 1006.6 hPa | 0 mm | - | - | - |
| 1777418956 | 17.78° C | 60% | 1006.4 hPa | 0 mm | - | - | - |
| 1777418057 | 17.78° C | 58% | 1006.4 hPa | 0 mm | - | - | - |
| 1777417157 | 18.33° C | 56% | 1006.4 hPa | 0 mm | - | - | - |
| 1777416257 | 18.33° C | 56% | 1006.4 hPa | 0 mm | - | - | - |
| 1777415357 | 18.33° C | 55% | 1006.2 hPa | 0 mm | - | - | - |
| 1777414456 | 17.78° C | 60% | 1005.7 hPa | 0 mm | - | - | - |
| 1777413556 | 16.67° C | 63% | 1005.7 hPa | 0 mm | - | - | - |
| 1777412656 | 16.67° C | 64% | 1005.4 hPa | 0 mm | - | - | - |
| 1777411755 | 16.67° C | 65% | 1005.1 hPa | 0 mm | - | - | - |
| 1777410855 | 16.11° C | 64% | 1005 hPa | 0 mm | - | - | - |
| 1777409955 | 16.11° C | 64% | 1004.8 hPa | 0 mm | - | - | - |
| 1777409057 | 16.11° C | 66% | 1004.8 hPa | 0 mm | - | - | - |
| 1777408157 | 16.11° C | 66% | 1004.6 hPa | 0 mm | - | - | - |
| 1777407257 | 16.11° C | 66% | 1004.3 hPa | 0 mm | - | - | - |
| 1777406357 | 16.67° C | 66% | 1004.1 hPa | 0 mm | - | - | - |
| 1777405457 | 16.67° C | 67% | 1004 hPa | 0 mm | - | - | - |
| 1777404557 | 16.11° C | 69% | 1003.8 hPa | 0 mm | - | - | - |
| 1777403657 | 16.11° C | 69% | 1003.7 hPa | 0 mm | - | - | - |
| 1777402756 | 16.11° C | 68% | 1003.5 hPa | 0 mm | - | - | - |
| 1777401856 | 16.67° C | 65% | 1003.4 hPa | 0 mm | - | - | - |
| 1777400956 | 17.22° C | 64% | 1003.4 hPa | 0 mm | - | - | - |
| 1777400056 | 17.78° C | 56% | 1003.4 hPa | 0 mm | - | - | - |
* Rain latest hour (hover to see other rain measurements)
** Current wind speed in m/s (hover to see current wind gust speed)